sensor_id;sensor_type;location;lat;lon;timestamp;pressure;altitude;pressure_sealevel;temperature;humidity
61292;BME280;47165;42.664;23.368;2023-11-19T00:00:42;94973.19;;;4.72;59.13
61292;BME280;47165;42.664;23.368;2023-11-19T00:03:07;94973.03;;;4.51;60.02
61292;BME280;47165;42.664;23.368;2023-11-19T00:05:33;94976.66;;;4.46;60.35
61292;BME280;47165;42.664;23.368;2023-11-19T00:07:59;94960.31;;;4.45;59.97
61292;BME280;47165;42.664;23.368;2023-11-19T00:10:24;94981.50;;;4.30;61.11
61292;BME280;47165;42.664;23.368;2023-11-19T00:12:50;94977.13;;;4.32;60.93
61292;BME280;47165;42.664;23.368;2023-11-19T00:15:17;94970.31;;;4.54;60.37
61292;BME280;47165;42.664;23.368;2023-11-19T00:17:47;94969.16;;;4.38;60.20
61292;BME280;47165;42.664;23.368;2023-11-19T00:20:14;94980.41;;;4.37;60.58
61292;BME280;47165;42.664;23.368;2023-11-19T00:22:46;94980.66;;;4.29;60.16
61292;BME280;47165;42.664;23.368;2023-11-19T00:25:13;94976.34;;;4.01;61.68
61292;BME280;47165;42.664;23.368;2023-11-19T00:27:39;94989.56;;;4.20;61.12
61292;BME280;47165;42.664;23.368;2023-11-19T00:30:06;94979.50;;;4.38;60.51
61292;BME280;47165;42.664;23.368;2023-11-19T00:32:32;94978.53;;;4.40;60.09
61292;BME280;47165;42.664;23.368;2023-11-19T00:34:58;94978.09;;;4.28;60.86
61292;BME280;47165;42.664;23.368;2023-11-19T00:37:23;94979.47;;;3.85;61.59
61292;BME280;47165;42.664;23.368;2023-11-19T00:39:49;94991.59;;;4.11;60.94
61292;BME280;47165;42.664;23.368;2023-11-19T00:42:15;94986.25;;;4.42;60.04
61292;BME280;47165;42.664;23.368;2023-11-19T00:44:40;94979.13;;;4.49;59.66
61292;BME280;47165;42.664;23.368;2023-11-19T00:47:07;94980.00;;;3.96;61.53
61292;BME280;47165;42.664;23.368;2023-11-19T00:49:32;95000.09;;;4.14;61.31
61292;BME280;47165;42.664;23.368;2023-11-19T00:52:04;94994.59;;;4.23;60.61
61292;BME280;47165;42.664;23.368;2023-11-19T00:54:31;94970.72;;;4.17;60.74
61292;BME280;47165;42.664;23.368;2023-11-19T00:56:57;94996.94;;;4.31;60.56
61292;BME280;47165;42.664;23.368;2023-11-19T00:59:22;94997.50;;;4.14;60.31
61292;BME280;47165;42.664;23.368;2023-11-19T01:01:49;94983.28;;;4.01;61.43
61292;BME280;47165;42.664;23.368;2023-11-19T01:04:16;94978.09;;;4.28;61.11
61292;BME280;47165;42.664;23.368;2023-11-19T01:06:42;94985.91;;;4.26;60.72
61292;BME280;47165;42.664;23.368;2023-11-19T01:09:08;94999.59;;;4.01;61.63
61292;BME280;47165;42.664;23.368;2023-11-19T01:11:34;94998.16;;;4.21;61.31
61292;BME280;47165;42.664;23.368;2023-11-19T01:14:00;94997.19;;;4.23;60.97
61292;BME280;47165;42.664;23.368;2023-11-19T01:16:26;94997.09;;;4.27;61.04
61292;BME280;47165;42.664;23.368;2023-11-19T01:18:51;95010.09;;;3.97;61.53
61292;BME280;47165;42.664;23.368;2023-11-19T01:21:17;94986.16;;;3.92;62.07
61292;BME280;47165;42.664;23.368;2023-11-19T01:23:43;94995.59;;;4.19;61.14
61292;BME280;47165;42.664;23.368;2023-11-19T01:26:10;94994.16;;;4.37;60.60
61292;BME280;47165;42.664;23.368;2023-11-19T01:28:36;94992.56;;;4.33;60.68
61292;BME280;47165;42.664;23.368;2023-11-19T01:31:02;94985.19;;;4.22;60.92
61292;BME280;47165;42.664;23.368;2023-11-19T01:33:28;94993.44;;;4.06;61.42
61292;BME280;47165;42.664;23.368;2023-11-19T01:35:55;95000.38;;;4.32;60.30
61292;BME280;47165;42.664;23.368;2023-11-19T01:38:24;95001.56;;;4.48;60.60
61292;BME280;47165;42.664;23.368;2023-11-19T01:40:50;94990.97;;;4.56;59.63
61292;BME280;47165;42.664;23.368;2023-11-19T01:43:37;94995.97;;;3.80;61.01
61292;BME280;47165;42.664;23.368;2023-11-19T01:46:04;94997.34;;;3.92;61.41
61292;BME280;47165;42.664;23.368;2023-11-19T01:48:32;94973.88;;;3.98;60.98
61292;BME280;47165;42.664;23.368;2023-11-19T01:50:58;94988.22;;;3.80;61.22
61292;BME280;47165;42.664;23.368;2023-11-19T01:53:25;95011.38;;;3.83;61.24
61292;BME280;47165;42.664;23.368;2023-11-19T01:55:52;95010.31;;;3.89;60.81
61292;BME280;47165;42.664;23.368;2023-11-19T01:58:26;95003.34;;;3.93;60.37
61292;BME280;47165;42.664;23.368;2023-11-19T02:00:52;95015.75;;;3.81;60.79
61292;BME280;47165;42.664;23.368;2023-11-19T02:03:19;95008.16;;;4.03;60.28
61292;BME280;47165;42.664;23.368;2023-11-19T02:05:45;95015.38;;;3.94;60.15
61292;BME280;47165;42.664;23.368;2023-11-19T02:08:14;94997.78;;;4.05;59.35
61292;BME280;47165;42.664;23.368;2023-11-19T02:10:39;94998.81;;;3.99;60.11
61292;BME280;47165;42.664;23.368;2023-11-19T02:13:05;95004.19;;;3.65;60.99
61292;BME280;47165;42.664;23.368;2023-11-19T02:15:32;95019.59;;;3.96;59.80
61292;BME280;47165;42.664;23.368;2023-11-19T02:18:20;95028.69;;;3.80;59.83
61292;BME280;47165;42.664;23.368;2023-11-19T02:20:47;95044.22;;;3.78;59.83
61292;BME280;47165;42.664;23.368;2023-11-19T02:23:13;95012.06;;;3.89;59.30
61292;BME280;47165;42.664;23.368;2023-11-19T02:25:40;95005.69;;;4.00;59.00
61292;BME280;47165;42.664;23.368;2023-11-19T02:28:06;94999.91;;;4.20;58.18
61292;BME280;47165;42.664;23.368;2023-11-19T02:30:32;95023.28;;;4.16;58.48
61292;BME280;47165;42.664;23.368;2023-11-19T02:32:59;95014.19;;;4.04;58.83
61292;BME280;47165;42.664;23.368;2023-11-19T02:35:27;95013.00;;;4.14;58.52
61292;BME280;47165;42.664;23.368;2023-11-19T02:37:55;95005.16;;;4.17;58.21
61292;BME280;47165;42.664;23.368;2023-11-19T02:40:21;94995.38;;;3.99;59.06
61292;BME280;47165;42.664;23.368;2023-11-19T02:42:48;94998.88;;;3.98;58.87
61292;BME280;47165;42.664;23.368;2023-11-19T02:45:14;94996.19;;;4.01;58.67
61292;BME280;47165;42.664;23.368;2023-11-19T02:47:40;95006.44;;;4.04;58.52
61292;BME280;47165;42.664;23.368;2023-11-19T02:50:08;95004.09;;;3.68;59.73
61292;BME280;47165;42.664;23.368;2023-11-19T02:52:42;95009.56;;;3.57;60.19
61292;BME280;47165;42.664;23.368;2023-11-19T02:55:09;94995.53;;;3.66;60.14
61292;BME280;47165;42.664;23.368;2023-11-19T02:57:40;94994.00;;;3.31;61.03
61292;BME280;47165;42.664;23.368;2023-11-19T03:00:18;94988.38;;;3.46;60.92
61292;BME280;47165;42.664;23.368;2023-11-19T03:02:45;94992.09;;;3.67;60.45
61292;BME280;47165;42.664;23.368;2023-11-19T03:05:19;94996.09;;;3.48;60.72
61292;BME280;47165;42.664;23.368;2023-11-19T03:07:45;94985.94;;;3.41;61.03
61292;BME280;47165;42.664;23.368;2023-11-19T03:10:11;94992.28;;;3.61;60.31
61292;BME280;47165;42.664;23.368;2023-11-19T03:12:43;95007.34;;;3.45;60.69
61292;BME280;47165;42.664;23.368;2023-11-19T03:15:09;94998.59;;;3.51;60.62
61292;BME280;47165;42.664;23.368;2023-11-19T03:17:44;95002.66;;;3.58;60.39
61292;BME280;47165;42.664;23.368;2023-11-19T03:20:11;95005.97;;;3.63;59.49
61292;BME280;47165;42.664;23.368;2023-11-19T03:22:40;94992.38;;;3.56;60.06
61292;BME280;47165;42.664;23.368;2023-11-19T03:25:07;95006.53;;;3.73;59.78
61292;BME280;47165;42.664;23.368;2023-11-19T03:27:35;95007.78;;;3.59;60.17
61292;BME280;47165;42.664;23.368;2023-11-19T03:30:02;95010.28;;;3.62;60.14
61292;BME280;47165;42.664;23.368;2023-11-19T03:32:29;95008.81;;;3.54;60.47
61292;BME280;47165;42.664;23.368;2023-11-19T03:34:54;95006.84;;;3.62;60.33
61292;BME280;47165;42.664;23.368;2023-11-19T03:37:21;95042.13;;;3.32;61.54
61292;BME280;47165;42.664;23.368;2023-11-19T03:39:46;95012.28;;;3.23;62.25
61292;BME280;47165;42.664;23.368;2023-11-19T03:42:12;95019.88;;;3.28;61.69
61292;BME280;47165;42.664;23.368;2023-11-19T03:44:38;95021.44;;;3.33;61.91
61292;BME280;47165;42.664;23.368;2023-11-19T03:47:04;95022.13;;;3.40;61.17
61292;BME280;47165;42.664;23.368;2023-11-19T03:49:30;95022.44;;;3.29;61.44
61292;BME280;47165;42.664;23.368;2023-11-19T03:51:55;95043.56;;;3.11;61.91
61292;BME280;47165;42.664;23.368;2023-11-19T03:54:21;95048.84;;;3.37;61.83
61292;BME280;47165;42.664;23.368;2023-11-19T03:56:48;95036.25;;;3.56;60.77
61292;BME280;47165;42.664;23.368;2023-11-19T03:59:14;95038.66;;;3.62;60.77
61292;BME280;47165;42.664;23.368;2023-11-19T04:01:41;95036.00;;;3.66;60.63
61292;BME280;47165;42.664;23.368;2023-11-19T04:04:07;95034.00;;;3.75;60.36
61292;BME280;47165;42.664;23.368;2023-11-19T04:06:33;95045.28;;;3.43;60.80
61292;BME280;47165;42.664;23.368;2023-11-19T04:08:58;95033.00;;;3.51;60.80
61292;BME280;47165;42.664;23.368;2023-11-19T04:11:24;95043.97;;;3.58;60.64
61292;BME280;47165;42.664;23.368;2023-11-19T04:13:49;95045.06;;;3.19;62.42
61292;BME280;47165;42.664;23.368;2023-11-19T04:16:15;95052.22;;;3.41;61.66
61292;BME280;47165;42.664;23.368;2023-11-19T04:18:40;95047.81;;;3.45;61.03
61292;BME280;47165;42.664;23.368;2023-11-19T04:21:09;95049.66;;;3.39;61.47
61292;BME280;47165;42.664;23.368;2023-11-19T04:23:34;95043.50;;;3.45;60.99
61292;BME280;47165;42.664;23.368;2023-11-19T04:26:04;95041.47;;;3.25;61.70
61292;BME280;47165;42.664;23.368;2023-11-19T04:28:30;95045.81;;;3.23;62.15
61292;BME280;47165;42.664;23.368;2023-11-19T04:30:56;95060.16;;;3.33;61.89
61292;BME280;47165;42.664;23.368;2023-11-19T04:33:25;95055.56;;;3.45;61.38
61292;BME280;47165;42.664;23.368;2023-11-19T04:35:51;95052.19;;;3.42;61.15
61292;BME280;47165;42.664;23.368;2023-11-19T04:38:16;95066.41;;;3.56;60.65
61292;BME280;47165;42.664;23.368;2023-11-19T04:40:42;95067.69;;;3.41;61.15
61292;BME280;47165;42.664;23.368;2023-11-19T04:43:07;95074.38;;;3.48;61.34
61292;BME280;47165;42.664;23.368;2023-11-19T04:45:33;95077.19;;;3.70;60.18
61292;BME280;47165;42.664;23.368;2023-11-19T04:47:59;95066.84;;;3.40;60.72
61292;BME280;47165;42.664;23.368;2023-11-19T04:50:24;95055.09;;;3.60;60.10
61292;BME280;47165;42.664;23.368;2023-11-19T04:52:52;95051.09;;;3.79;59.44
61292;BME280;47165;42.664;23.368;2023-11-19T04:55:19;95050.66;;;3.93;59.07
61292;BME280;47165;42.664;23.368;2023-11-19T04:57:44;95075.56;;;3.36;60.47
61292;BME280;47165;42.664;23.368;2023-11-19T05:00:10;95073.84;;;3.67;59.71
61292;BME280;47165;42.664;23.368;2023-11-19T05:02:36;95071.72;;;3.51;60.25
61292;BME280;47165;42.664;23.368;2023-11-19T05:05:02;95078.03;;;3.71;59.72
61292;BME280;47165;42.664;23.368;2023-11-19T05:07:30;95080.69;;;3.97;58.93
61292;BME280;47165;42.664;23.368;2023-11-19T05:09:56;95088.31;;;4.02;58.64
61292;BME280;47165;42.664;23.368;2023-11-19T05:12:21;95111.94;;;3.90;59.15
61292;BME280;47165;42.664;23.368;2023-11-19T05:14:48;95106.22;;;3.78;58.51
61292;BME280;47165;42.664;23.368;2023-11-19T05:17:17;95111.25;;;3.52;59.62
61292;BME280;47165;42.664;23.368;2023-11-19T05:19:46;95099.09;;;3.57;59.73
61292;BME280;47165;42.664;23.368;2023-11-19T05:22:13;95109.59;;;3.51;59.14
61292;BME280;47165;42.664;23.368;2023-11-19T05:24:38;95111.72;;;3.66;58.86
61292;BME280;47165;42.664;23.368;2023-11-19T05:27:04;95096.06;;;3.72;58.79
61292;BME280;47165;42.664;23.368;2023-11-19T05:29:30;95105.09;;;3.87;58.48
61292;BME280;47165;42.664;23.368;2023-11-19T05:31:55;95086.66;;;3.70;59.18
61292;BME280;47165;42.664;23.368;2023-11-19T05:34:21;95095.09;;;3.45;59.59
61292;BME280;47165;42.664;23.368;2023-11-19T05:36:47;95095.19;;;3.73;58.92
61292;BME280;47165;42.664;23.368;2023-11-19T05:39:12;95093.06;;;3.56;59.07
61292;BME280;47165;42.664;23.368;2023-11-19T05:41:38;95096.00;;;3.75;58.49
61292;BME280;47165;42.664;23.368;2023-11-19T05:44:04;95102.72;;;3.50;59.17
61292;BME280;47165;42.664;23.368;2023-11-19T05:46:29;95097.66;;;3.47;59.48
61292;BME280;47165;42.664;23.368;2023-11-19T05:48:55;95113.13;;;3.78;58.70
61292;BME280;47165;42.664;23.368;2023-11-19T05:51:20;95098.28;;;3.55;59.28
61292;BME280;47165;42.664;23.368;2023-11-19T05:53:47;95086.72;;;3.68;58.85
61292;BME280;47165;42.664;23.368;2023-11-19T05:56:15;95092.47;;;3.78;58.65
61292;BME280;47165;42.664;23.368;2023-11-19T05:58:59;95097.97;;;3.66;58.79
61292;BME280;47165;42.664;23.368;2023-11-19T06:01:34;95093.75;;;3.63;58.91
61292;BME280;47165;42.664;23.368;2023-11-19T06:03:59;95134.84;;;3.39;59.86
61292;BME280;47165;42.664;23.368;2023-11-19T06:06:26;95110.84;;;3.36;60.19
61292;BME280;47165;42.664;23.368;2023-11-19T06:08:52;95127.50;;;3.57;59.62
61292;BME280;47165;42.664;23.368;2023-11-19T06:11:18;95124.56;;;3.69;59.32
61292;BME280;47165;42.664;23.368;2023-11-19T06:13:45;95144.50;;;3.64;59.26
61292;BME280;47165;42.664;23.368;2023-11-19T06:16:11;95134.34;;;3.25;60.54
61292;BME280;47165;42.664;23.368;2023-11-19T06:18:37;95120.16;;;3.41;60.15
61292;BME280;47165;42.664;23.368;2023-11-19T06:21:04;95128.97;;;3.34;60.72
61292;BME280;47165;42.664;23.368;2023-11-19T06:23:29;95130.25;;;3.51;60.41
61292;BME280;47165;42.664;23.368;2023-11-19T06:25:57;95114.72;;;3.82;59.78
61292;BME280;47165;42.664;23.368;2023-11-19T06:28:22;95113.88;;;3.81;58.58
61292;BME280;47165;42.664;23.368;2023-11-19T06:30:48;95122.19;;;3.61;59.69
61292;BME280;47165;42.664;23.368;2023-11-19T06:33:14;95122.72;;;3.73;58.82
61292;BME280;47165;42.664;23.368;2023-11-19T06:35:39;95111.94;;;3.90;58.79
61292;BME280;47165;42.664;23.368;2023-11-19T06:38:05;95102.50;;;3.87;58.79
61292;BME280;47165;42.664;23.368;2023-11-19T06:40:34;95132.66;;;3.87;57.96
61292;BME280;47165;42.664;23.368;2023-11-19T06:43:00;95141.47;;;3.48;59.20
61292;BME280;47165;42.664;23.368;2023-11-19T06:45:26;95122.19;;;3.61;59.20
61292;BME280;47165;42.664;23.368;2023-11-19T06:47:51;95133.06;;;3.41;59.77
61292;BME280;47165;42.664;23.368;2023-11-19T06:50:18;95129.97;;;3.60;59.81
61292;BME280;47165;42.664;23.368;2023-11-19T06:52:44;95114.53;;;3.88;58.57
61292;BME280;47165;42.664;23.368;2023-11-19T06:55:16;95127.00;;;3.74;58.83
61292;BME280;47165;42.664;23.368;2023-11-19T06:57:41;95126.41;;;3.64;58.75
61292;BME280;47165;42.664;23.368;2023-11-19T07:00:07;95129.81;;;3.66;58.96
61292;BME280;47165;42.664;23.368;2023-11-19T07:02:34;95132.75;;;3.52;59.29
61292;BME280;47165;42.664;23.368;2023-11-19T07:05:00;95139.47;;;3.59;59.13
61292;BME280;47165;42.664;23.368;2023-11-19T07:07:25;95142.72;;;3.66;59.26
61292;BME280;47165;42.664;23.368;2023-11-19T07:09:51;95153.78;;;3.71;58.25
61292;BME280;47165;42.664;23.368;2023-11-19T07:12:17;95162.22;;;3.76;58.49
61292;BME280;47165;42.664;23.368;2023-11-19T07:14:42;95142.28;;;3.50;58.56
61292;BME280;47165;42.664;23.368;2023-11-19T07:17:08;95167.72;;;3.31;58.26
61292;BME280;47165;42.664;23.368;2023-11-19T07:19:36;95150.88;;;3.51;58.64
61292;BME280;47165;42.664;23.368;2023-11-19T07:22:04;95160.16;;;3.25;60.31
61292;BME280;47165;42.664;23.368;2023-11-19T07:24:29;95171.22;;;3.30;59.41
61292;BME280;47165;42.664;23.368;2023-11-19T07:26:55;95169.16;;;3.74;60.37
61292;BME280;47165;42.664;23.368;2023-11-19T07:29:20;95163.66;;;3.87;58.13
61292;BME280;47165;42.664;23.368;2023-11-19T07:31:48;95169.28;;;4.01;57.20
61292;BME280;47165;42.664;23.368;2023-11-19T07:34:14;95175.91;;;4.10;56.33
61292;BME280;47165;42.664;23.368;2023-11-19T07:36:40;95195.06;;;4.02;56.69
61292;BME280;47165;42.664;23.368;2023-11-19T07:39:06;95199.41;;;4.02;57.71
61292;BME280;47165;42.664;23.368;2023-11-19T07:41:32;95195.44;;;3.89;57.89
61292;BME280;47165;42.664;23.368;2023-11-19T07:43:58;95211.75;;;3.91;56.99
61292;BME280;47165;42.664;23.368;2023-11-19T07:46:24;95215.41;;;3.83;57.71
61292;BME280;47165;42.664;23.368;2023-11-19T07:48:50;95189.28;;;3.30;58.25
61292;BME280;47165;42.664;23.368;2023-11-19T07:51:16;95180.78;;;3.58;58.05
61292;BME280;47165;42.664;23.368;2023-11-19T07:53:41;95192.19;;;3.51;57.79
61292;BME280;47165;42.664;23.368;2023-11-19T07:56:07;95194.78;;;3.51;58.38
61292;BME280;47165;42.664;23.368;2023-11-19T07:58:33;95210.91;;;3.59;57.31
61292;BME280;47165;42.664;23.368;2023-11-19T08:01:00;95191.47;;;3.77;57.40
61292;BME280;47165;42.664;23.368;2023-11-19T08:03:27;95187.38;;;3.70;56.95
61292;BME280;47165;42.664;23.368;2023-11-19T08:05:55;95196.22;;;3.61;57.50
61292;BME280;47165;42.664;23.368;2023-11-19T08:08:22;95201.22;;;3.67;57.18
61292;BME280;47165;42.664;23.368;2023-11-19T08:10:47;95197.59;;;3.73;57.46
61292;BME280;47165;42.664;23.368;2023-11-19T08:13:13;95204.28;;;3.81;56.68
61292;BME280;47165;42.664;23.368;2023-11-19T08:15:38;95209.66;;;4.03;56.56
61292;BME280;47165;42.664;23.368;2023-11-19T08:18:05;95220.44;;;4.19;55.64
61292;BME280;47165;42.664;23.368;2023-11-19T08:20:32;95227.72;;;4.05;56.52
61292;BME280;47165;42.664;23.368;2023-11-19T08:22:58;95216.75;;;3.97;55.90
61292;BME280;47165;42.664;23.368;2023-11-19T08:25:24;95221.56;;;4.09;55.65
61292;BME280;47165;42.664;23.368;2023-11-19T08:27:49;95217.13;;;3.83;56.40
61292;BME280;47165;42.664;23.368;2023-11-19T08:30:16;95225.44;;;3.63;57.19
61292;BME280;47165;42.664;23.368;2023-11-19T08:32:42;95221.75;;;3.72;56.95
61292;BME280;47165;42.664;23.368;2023-11-19T08:35:07;95223.44;;;3.73;56.61
61292;BME280;47165;42.664;23.368;2023-11-19T08:37:34;95222.09;;;3.91;56.46
61292;BME280;47165;42.664;23.368;2023-11-19T08:40:02;95231.47;;;3.93;56.14
61292;BME280;47165;42.664;23.368;2023-11-19T08:42:28;95217.75;;;3.60;56.38
61292;BME280;47165;42.664;23.368;2023-11-19T08:44:54;95231.09;;;3.76;56.45
61292;BME280;47165;42.664;23.368;2023-11-19T08:47:20;95224.63;;;3.92;55.70
61292;BME280;47165;42.664;23.368;2023-11-19T08:49:50;95218.69;;;4.20;55.03
61292;BME280;47165;42.664;23.368;2023-11-19T08:52:16;95229.94;;;4.19;54.47
61292;BME280;47165;42.664;23.368;2023-11-19T08:54:44;95215.78;;;4.01;55.07
61292;BME280;47165;42.664;23.368;2023-11-19T08:57:10;95233.03;;;4.00;55.31
61292;BME280;47165;42.664;23.368;2023-11-19T08:59:38;95230.41;;;4.32;54.92
61292;BME280;47165;42.664;23.368;2023-11-19T09:02:05;95221.84;;;4.00;55.32
61292;BME280;47165;42.664;23.368;2023-11-19T09:04:31;95224.00;;;4.15;55.25
61292;BME280;47165;42.664;23.368;2023-11-19T09:06:58;95217.44;;;4.33;54.87
61292;BME280;47165;42.664;23.368;2023-11-19T09:09:23;95200.63;;;4.48;54.24
61292;BME280;47165;42.664;23.368;2023-11-19T09:11:49;95208.22;;;4.54;53.68
61292;BME280;47165;42.664;23.368;2023-11-19T09:14:14;95207.06;;;4.63;53.19
61292;BME280;47165;42.664;23.368;2023-11-19T09:16:43;95182.91;;;4.92;53.10
61292;BME280;47165;42.664;23.368;2023-11-19T09:19:08;95184.22;;;5.04;52.47
61292;BME280;47165;42.664;23.368;2023-11-19T09:21:34;95198.03;;;5.04;52.22
61292;BME280;47165;42.664;23.368;2023-11-19T09:24:02;95205.88;;;5.01;52.03
61292;BME280;47165;42.664;23.368;2023-11-19T09:26:28;95249.88;;;5.01;52.02
61292;BME280;47165;42.664;23.368;2023-11-19T09:28:53;95210.47;;;4.93;52.27
61292;BME280;47165;42.664;23.368;2023-11-19T09:31:18;95232.72;;;4.71;52.79
61292;BME280;47165;42.664;23.368;2023-11-19T09:33:44;95211.38;;;4.92;52.11
61292;BME280;47165;42.664;23.368;2023-11-19T09:36:14;95208.06;;;4.87;52.04
61292;BME280;47165;42.664;23.368;2023-11-19T09:38:42;95183.00;;;4.89;52.04
61292;BME280;47165;42.664;23.368;2023-11-19T09:41:09;95177.38;;;4.48;52.32
61292;BME280;47165;42.664;23.368;2023-11-19T09:43:37;95163.47;;;4.79;52.16
61292;BME280;47165;42.664;23.368;2023-11-19T09:46:06;95162.91;;;5.22;51.83
61292;BME280;47165;42.664;23.368;2023-11-19T09:48:38;95153.78;;;4.86;51.59
61292;BME280;47165;42.664;23.368;2023-11-19T09:51:08;95156.22;;;4.63;52.05
61292;BME280;47165;42.664;23.368;2023-11-19T09:53:35;95151.03;;;4.63;51.92
61292;BME280;47165;42.664;23.368;2023-11-19T09:56:02;95143.00;;;4.44;52.87
61292;BME280;47165;42.664;23.368;2023-11-19T09:58:32;95142.19;;;4.71;52.28
61292;BME280;47165;42.664;23.368;2023-11-19T10:00:59;95159.50;;;4.69;52.69
61292;BME280;47165;42.664;23.368;2023-11-19T10:03:26;95158.03;;;4.88;52.15
61292;BME280;47165;42.664;23.368;2023-11-19T10:05:54;95142.50;;;4.88;52.22
61292;BME280;47165;42.664;23.368;2023-11-19T10:08:20;95145.38;;;4.79;52.57
61292;BME280;47165;42.664;23.368;2023-11-19T10:10:47;95152.69;;;4.66;52.72
61292;BME280;47165;42.664;23.368;2023-11-19T10:13:12;95142.59;;;4.85;52.48
61292;BME280;47165;42.664;23.368;2023-11-19T10:15:40;95138.81;;;5.20;52.30
61292;BME280;47165;42.664;23.368;2023-11-19T10:18:06;95143.03;;;5.50;51.68
61292;BME280;47165;42.664;23.368;2023-11-19T10:20:40;95189.09;;;5.65;50.62
61292;BME280;47165;42.664;23.368;2023-11-19T10:23:07;95161.78;;;6.29;49.52
61292;BME280;47165;42.664;23.368;2023-11-19T10:25:33;95148.69;;;6.77;47.73
61292;BME280;47165;42.664;23.368;2023-11-19T10:27:59;95141.88;;;6.75;46.38
61292;BME280;47165;42.664;23.368;2023-11-19T10:30:27;95132.06;;;6.37;47.72
61292;BME280;47165;42.664;23.368;2023-11-19T10:33:20;95125.38;;;7.59;45.73
61292;BME280;47165;42.664;23.368;2023-11-19T10:35:56;95123.69;;;7.17;45.58
61292;BME280;47165;42.664;23.368;2023-11-19T10:38:23;95122.22;;;7.32;46.12
61292;BME280;47165;42.664;23.368;2023-11-19T10:40:51;95111.88;;;7.51;46.19
61292;BME280;47165;42.664;23.368;2023-11-19T10:43:18;95134.97;;;7.78;45.12
61292;BME280;47165;42.664;23.368;2023-11-19T10:45:43;95132.44;;;7.15;45.38
61292;BME280;47165;42.664;23.368;2023-11-19T10:48:09;95125.16;;;6.38;46.85
61292;BME280;47165;42.664;23.368;2023-11-19T10:50:37;95110.59;;;6.56;47.51
61292;BME280;47165;42.664;23.368;2023-11-19T10:53:04;95146.31;;;6.93;46.53
61292;BME280;47165;42.664;23.368;2023-11-19T10:55:35;95114.53;;;7.09;46.14
61292;BME280;47165;42.664;23.368;2023-11-19T10:58:08;95113.63;;;7.30;45.71
61292;BME280;47165;42.664;23.368;2023-11-19T11:00:44;95120.97;;;7.41;46.00
61292;BME280;47165;42.664;23.368;2023-11-19T11:03:18;95117.63;;;7.58;45.74
61292;BME280;47165;42.664;23.368;2023-11-19T11:05:48;95114.94;;;7.61;45.17
61292;BME280;47165;42.664;23.368;2023-11-19T11:08:14;95113.38;;;7.57;45.23
61292;BME280;47165;42.664;23.368;2023-11-19T11:10:43;95109.84;;;7.58;45.03
61292;BME280;47165;42.664;23.368;2023-11-19T11:13:10;95101.47;;;7.51;44.90
61292;BME280;47165;42.664;23.368;2023-11-19T11:15:37;95083.34;;;7.50;44.84
61292;BME280;47165;42.664;23.368;2023-11-19T11:18:07;95084.25;;;7.69;44.53
61292;BME280;47165;42.664;23.368;2023-11-19T11:20:33;95085.72;;;7.75;44.87
61292;BME280;47165;42.664;23.368;2023-11-19T11:34:49;95084.28;;;8.99;42.17
61292;BME280;47165;42.664;23.368;2023-11-19T11:39:57;95078.56;;;9.60;41.20
61292;BME280;47165;42.664;23.368;2023-11-19T11:45:08;95043.75;;;10.26;39.47
61292;BME280;47165;42.664;23.368;2023-11-19T11:50:19;95038.19;;;10.64;38.46
61292;BME280;47165;42.664;23.368;2023-11-19T11:57:57;95050.13;;;11.29;37.27
61292;BME280;47165;42.664;23.368;2023-11-19T12:00:37;95059.09;;;11.25;36.97
61292;BME280;47165;42.664;23.368;2023-11-19T12:03:05;95064.16;;;11.28;37.31
61292;BME280;47165;42.664;23.368;2023-11-19T12:05:41;95066.00;;;11.26;36.81
61292;BME280;47165;42.664;23.368;2023-11-19T12:08:07;95060.88;;;11.39;36.97
61292;BME280;47165;42.664;23.368;2023-11-19T12:10:50;95052.59;;;11.46;37.52
61292;BME280;47165;42.664;23.368;2023-11-19T12:13:17;95058.75;;;11.60;36.23
61292;BME280;47165;42.664;23.368;2023-11-19T12:18:31;95039.56;;;11.90;36.24
61292;BME280;47165;42.664;23.368;2023-11-19T12:20:58;95042.34;;;12.01;36.58
61292;BME280;47165;42.664;23.368;2023-11-19T12:23:31;95024.19;;;12.26;36.02
61292;BME280;47165;42.664;23.368;2023-11-19T12:25:57;95019.31;;;12.35;35.88
61292;BME280;47165;42.664;23.368;2023-11-19T12:28:24;95029.09;;;12.45;35.76
61292;BME280;47165;42.664;23.368;2023-11-19T12:30:52;95010.41;;;12.64;35.57
61292;BME280;47165;42.664;23.368;2023-11-19T12:33:18;95018.00;;;12.82;34.73
61292;BME280;47165;42.664;23.368;2023-11-19T12:35:46;95008.19;;;12.98;34.92
61292;BME280;47165;42.664;23.368;2023-11-19T12:38:25;95003.19;;;13.21;34.40
61292;BME280;47165;42.664;23.368;2023-11-19T12:41:06;94995.47;;;13.32;33.81
61292;BME280;47165;42.664;23.368;2023-11-19T12:43:32;95005.22;;;13.30;33.62
61292;BME280;47165;42.664;23.368;2023-11-19T12:46:00;95004.53;;;13.14;33.80
61292;BME280;47165;42.664;23.368;2023-11-19T12:48:26;94996.16;;;13.08;33.81
61292;BME280;47165;42.664;23.368;2023-11-19T12:50:54;94994.88;;;13.01;34.01
61292;BME280;47165;42.664;23.368;2023-11-19T12:53:24;94990.19;;;13.06;34.49
61292;BME280;47165;42.664;23.368;2023-11-19T12:55:51;94999.28;;;13.14;34.38
61292;BME280;47165;42.664;23.368;2023-11-19T12:58:36;94992.38;;;13.13;33.83
61292;BME280;47165;42.664;23.368;2023-11-19T13:01:08;94977.06;;;13.06;34.26
61292;BME280;47165;42.664;23.368;2023-11-19T13:03:36;94988.06;;;13.12;34.37
61292;BME280;47165;42.664;23.368;2023-11-19T13:06:08;94981.38;;;13.20;34.33
61292;BME280;47165;42.664;23.368;2023-11-19T13:08:43;94978.66;;;13.22;33.98
61292;BME280;47165;42.664;23.368;2023-11-19T13:11:10;94975.84;;;13.25;33.81
61292;BME280;47165;42.664;23.368;2023-11-19T13:13:58;94984.78;;;13.35;34.11
61292;BME280;47165;42.664;23.368;2023-11-19T13:16:26;94985.06;;;13.31;33.68
61292;BME280;47165;42.664;23.368;2023-11-19T13:18:52;94984.16;;;13.32;33.60
61292;BME280;47165;42.664;23.368;2023-11-19T13:21:18;94975.22;;;13.34;33.69
61292;BME280;47165;42.664;23.368;2023-11-19T13:23:44;94970.59;;;13.25;33.77
61292;BME280;47165;42.664;23.368;2023-11-19T13:26:10;94971.50;;;13.24;33.51
61292;BME280;47165;42.664;23.368;2023-11-19T13:28:37;94965.75;;;13.19;33.74